Time;durP1;ratioP1;P1;durP2;ratioP2;P2;SDS_P1;SDS_P2;PMS_P1;PMS_P2;Temp;Humidity;BMP_temperature;BMP_pressure;BME280_temperature;BME280_humidity;BME280_pressure;Samples;Min_cycle;Max_cycle;Signal;HPM_P1;HPM_P2
2023/07/04 00:01:41;;;;;;;;;;;;;;;;;;5054651;28;19953;-77
2023/07/04 00:04:07;;;;;;;;;;;;;;;;;;5054531;28;19973;-77
2023/07/04 00:06:36;;;;;;;;;;;;;;;;;;5054201;28;19957;-78
2023/07/04 00:09:02;;;;;;;;;;;;;;;;;;5052184;28;19962;-77
2023/07/04 00:11:30;;;;;;;;;;;;;;;;;;5054187;28;19954;-79
2023/07/04 00:13:56;;;;;;;;;;;;;;;;;;5054701;28;20011;-78
2023/07/04 00:16:22;;;;;;;;;;;;;;;;;;5054434;28;19987;-79
2023/07/04 00:18:48;;;;;;;;;;;;;;;;;;5054691;28;19956;-78
2023/07/04 00:21:14;;;;;;;;;;;;;;;;;;5054418;28;19955;-78
2023/07/04 00:23:42;;;;;;;;;;;;;;;;;;5054028;28;20039;-79
2023/07/04 00:26:08;;;;;;;;;;;;;;;;;;5054285;28;19961;-78
2023/07/04 00:28:34;;;;;;;;;;;;;;;;;;5053960;28;19955;-77
2023/07/04 00:31:02;;;;;;;;;;;;;;;;;;5053934;28;19976;-78
2023/07/04 00:33:28;;;;;;;;;;;;;;;;;;5054136;28;19960;-77
2023/07/04 00:35:55;;;;;;;;;;;;;;;;;;5052521;28;19974;-78
2023/07/04 00:38:20;;;;;;;;;;;;;;;;;;5053779;28;19962;-77
2023/07/04 00:40:46;;;;;;;;;;;;;;;;;;5054312;28;20315;-78
2023/07/04 00:43:12;;;;;;;;;;;;;;;;;;5053677;28;19989;-77
2023/07/04 00:45:42;;;;;;;;;;;;;;;;;;5053642;28;19975;-77
2023/07/04 00:48:08;;;;;;;;;;;;;;;;;;5054106;28;20080;-78
2023/07/04 00:50:34;;;;;;;;;;;;;;;;;;5053666;28;19992;-78
2023/07/04 00:53:00;;;;;;;;;;;;;;;;;;5054157;28;19957;-77
2023/07/04 00:55:26;;;;;;;;;;;;;;;;;;5053575;28;20504;-78
2023/07/04 00:57:52;;;;;;;;;;;;;;;;;;5054137;28;20006;-77
2023/07/04 01:00:19;;;;;;;;;;;;;;;;;;5053543;28;20002;-77
2023/07/04 01:02:45;;;;;;;;;;;;;;;;;;5054058;28;19954;-78
2023/07/04 01:05:11;;;;;;;;;;;;;;;;;;5053414;28;20069;-78
2023/07/04 01:07:37;;;;;;;;;;;;;;;;;;5053514;28;20007;-77
2023/07/04 01:10:05;;;;;;;;;;;;;;;;;;5052128;28;20330;-78
2023/07/04 01:12:31;;;;;;;;;;;;;;;;;;5053457;28;20050;-77
2023/07/04 01:14:57;;;;;;;;;;;;;;;;;;5053424;28;20425;-78
2023/07/04 01:17:23;;;;;;;;;;;;;;;;;;5053450;28;20004;-77
2023/07/04 01:19:51;;;;;;;;;;;;;;;;;;5055618;28;19961;-77
2023/07/04 01:22:17;;;;;;;;;;;;;;;;;;5057755;28;19966;-78
2023/07/04 01:24:43;;;;;;;;;;;;;;;;;;5057623;28;19975;-78
2023/07/04 01:27:09;;;;;;;;;;;;;;;;;;5057340;28;19958;-77
2023/07/04 01:29:36;;;;;;;;;;;;;;;;;;5057267;28;19976;-78
2023/07/04 01:32:02;;;;;;;;;;;;;;;;;;5057239;28;19955;-78
2023/07/04 01:34:28;;;;;;;;;;;;;;;;;;5057476;28;20033;-78
2023/07/04 01:36:53;;;;;;;;;;;;;;;;;;5057412;28;19985;-77
2023/07/04 01:39:21;;;;;;;;;;;;;;;;;;5057370;28;19998;-78
2023/07/04 01:41:47;;;;;;;;;;;;;;;;;;5057058;28;19958;-78
2023/07/04 01:44:13;;;;;;;;;;;;;;;;;;5056528;28;19995;-77
2023/07/04 01:46:39;;;;;;;;;;;;;;;;;;5056951;28;19955;-78
2023/07/04 01:49:05;;;;;;;;;;;;;;;;;;5057477;28;20326;-77
2023/07/04 01:51:31;;;;;;;;;;;;;;;;;;5057184;28;19994;-77
2023/07/04 01:53:56;;;;;;;;;;;;;;;;;;5057123;28;20027;-77
2023/07/04 01:56:22;;;;;;;;;;;;;;;;;;5056783;28;19954;-77
2023/07/04 01:58:48;;;;;;;;;;;;;;;;;;5057044;28;19954;-78
2023/07/04 02:01:14;;;;;;;;;;;;;;;;;;5057027;28;19954;-78
2023/07/04 02:03:40;;;;;;;;;;;;;;;;;;5056623;28;19990;-78
2023/07/04 02:06:06;;;;;;;;;;;;;;;;;;5056871;28;19957;-78
2023/07/04 02:08:32;;;;;;;;;;;;;;;;;;5056578;28;20423;-78
2023/07/04 02:10:58;;;;;;;;;;;;;;;;;;5056505;28;20008;-77
2023/07/04 02:13:24;;;;;;;;;;;;;;;;;;5056707;28;19953;-78
2023/07/04 02:15:50;;;;;;;;;;;;;;;;;;5056669;28;20041;-78
2023/07/04 02:18:16;;;;;;;;;;;;;;;;;;5056379;28;20043;-77
2023/07/04 02:20:43;;;;;;;;;;;;;;;;;;5056328;28;19996;-78
2023/07/04 02:23:09;;;;;;;;;;;;;;;;;;5054802;28;20009;-78
2023/07/04 02:25:35;;;;;;;;;;;;;;;;;;5056217;28;19979;-78
2023/07/04 02:28:00;;;;;;;;;;;;;;;;;;5056741;28;19959;-77
2023/07/04 02:30:26;;;;;;;;;;;;;;;;;;5055607;28;19966;-78
2023/07/04 02:32:52;;;;;;;;;;;;;;;;;;5056366;28;20384;-78
2023/07/04 02:35:18;;;;;;;;;;;;;;;;;;5056316;28;20061;-77
2023/07/04 02:37:44;;;;;;;;;;;;;;;;;;5056043;28;20404;-77
2023/07/04 02:40:10;;;;;;;;;;;;;;;;;;5056550;28;19961;-77
2023/07/04 02:42:36;;;;;;;;;;;;;;;;;;5055935;28;19993;-77
2023/07/04 02:45:03;;;;;;;;;;;;;;;;;;5056450;28;19976;-77
2023/07/04 02:47:29;;;;;;;;;;;;;;;;;;5055805;28;19954;-78
2023/07/04 02:49:55;;;;;;;;;;;;;;;;;;5056348;28;19958;-78
2023/07/04 02:52:21;;;;;;;;;;;;;;;;;;5056022;28;20069;-77
2023/07/04 02:54:47;;;;;;;;;;;;;;;;;;5055741;28;20015;-77
2023/07/04 02:57:13;;;;;;;;;;;;;;;;;;5055961;28;19954;-78
2023/07/04 02:59:42;;;;;;;;;;;;;;;;;;5055893;28;20003;-78
2023/07/04 03:02:07;;;;;;;;;;;;;;;;;;5054090;28;19966;-79
2023/07/04 03:04:33;;;;;;;;;;;;;;;;;;5056042;28;19973;-78
2023/07/04 03:06:59;;;;;;;;;;;;;;;;;;5055740;28;19962;-78
2023/07/04 03:09:25;;;;;;;;;;;;;;;;;;5055767;28;19988;-79
2023/07/04 03:11:51;;;;;;;;;;;;;;;;;;5055416;28;19962;-78
2023/07/04 03:14:17;;;;;;;;;;;;;;;;;;5055389;28;19954;-78
2023/07/04 03:16:43;;;;;;;;;;;;;;;;;;5055344;28;20411;-77
2023/07/04 03:19:09;;;;;;;;;;;;;;;;;;5055529;28;20056;-77
2023/07/04 03:21:35;;;;;;;;;;;;;;;;;;5055218;28;19953;-76
2023/07/04 03:24:01;;;;;;;;;;;;;;;;;;5055078;28;19982;-79
2023/07/04 03:26:27;;;;;;;;;;;;;;;;;;5055379;28;19962;-78
2023/07/04 03:28:52;;;;;;;;;;;;;;;;;;5055348;28;19989;-78
2023/07/04 03:31:18;;;;;;;;;;;;;;;;;;5055007;28;19984;-78
2023/07/04 03:33:44;;;;;;;;;;;;;;;;;;5055470;28;20007;-78
2023/07/04 03:36:10;;;;;;;;;;;;;;;;;;5054860;28;19977;-78
2023/07/04 03:38:36;;;;;;;;;;;;;;;;;;5055432;28;19968;-77
2023/07/04 03:41:02;;;;;;;;;;;;;;;;;;5054829;28;19992;-78
2023/07/04 03:43:28;;;;;;;;;;;;;;;;;;5054547;28;20076;-77
2023/07/04 03:45:54;;;;;;;;;;;;;;;;;;5054677;28;20431;-77
2023/07/04 03:48:20;;;;;;;;;;;;;;;;;;5055221;28;19950;-77
2023/07/04 03:50:45;;;;;;;;;;;;;;;;;;5055220;28;19955;-77
2023/07/04 03:53:11;;;;;;;;;;;;;;;;;;5055139;28;20462;-78
2023/07/04 03:55:37;;;;;;;;;;;;;;;;;;5054507;28;20450;-78
2023/07/04 03:58:03;;;;;;;;;;;;;;;;;;5055069;28;19953;-78
2023/07/04 04:00:29;;;;;;;;;;;;;;;;;;5054455;28;19961;-78
2023/07/04 04:02:55;;;;;;;;;;;;;;;;;;5054675;28;19958;-76
2023/07/04 04:05:21;;;;;;;;;;;;;;;;;;5054288;28;19973;-77
2023/07/04 04:07:50;;;;;;;;;;;;;;;;;;5054389;28;20300;-78
2023/07/04 04:10:16;;;;;;;;;;;;;;;;;;5054901;28;19953;-78
2023/07/04 04:12:42;;;;;;;;;;;;;;;;;;5054501;28;19958;-78
2023/07/04 04:15:08;;;;;;;;;;;;;;;;;;5054254;28;19956;-77
2023/07/04 04:17:34;;;;;;;;;;;;;;;;;;5054464;28;20004;-77
2023/07/04 04:20:03;;;;;;;;;;;;;;;;;;5054387;28;19955;-78
2023/07/04 04:22:29;;;;;;;;;;;;;;;;;;5052757;28;19958;-77
2023/07/04 04:24:54;;;;;;;;;;;;;;;;;;5054228;28;19976;-78
2023/07/04 04:27:20;;;;;;;;;;;;;;;;;;5053974;28;19977;-78
2023/07/04 04:29:46;;;;;;;;;;;;;;;;;;5052684;28;19958;-78
2023/07/04 04:32:12;;;;;;;;;;;;;;;;;;5054522;28;19954;-78
2023/07/04 04:34:38;;;;;;;;;;;;;;;;;;5053772;28;20457;-78
2023/07/04 04:37:04;;;;;;;;;;;;;;;;;;5054138;28;19994;-78
2023/07/04 04:39:30;;;;;;;;;;;;;;;;;;5053810;28;20371;-78
2023/07/04 04:41:56;;;;;;;;;;;;;;;;;;5052519;28;20032;-78
2023/07/04 04:44:22;;;;;;;;;;;;;;;;;;5052170;28;20045;-78
2023/07/04 04:46:49;;;;;;;;;;;;;;;;;;5054259;28;19959;-77
2023/07/04 04:49:17;;;;;;;;;;;;;;;;;;5054153;28;20035;-77
2023/07/04 04:51:44;;;;;;;;;;;;;;;;;;5053634;28;19994;-78
2023/07/04 04:54:09;;;;;;;;;;;;;;;;;;5053473;28;19997;-79
2023/07/04 04:56:37;;;;;;;;;;;;;;;;;;5053659;28;19963;-78
2023/07/04 04:59:03;;;;;;;;;;;;;;;;;;5053658;28;19959;-77
2023/07/04 05:01:29;;;;;;;;;;;;;;;;;;5053896;28;20440;-78
2023/07/04 05:03:55;;;;;;;;;;;;;;;;;;5053473;28;19956;-78
2023/07/04 05:06:20;;;;;;;;;;;;;;;;;;5054109;28;20372;-77
2023/07/04 05:08:47;;;;;;;;;;;;;;;;;;5053533;28;20407;-77
2023/07/04 05:11:13;;;;;;;;;;;;;;;;;;5053517;28;19953;-78
2023/07/04 05:13:39;;;;;;;;;;;;;;;;;;5053741;28;19955;-76
2023/07/04 05:16:05;;;;;;;;;;;;;;;;;;5053429;28;19949;-78
2023/07/04 05:18:31;;;;;;;;;;;;;;;;;;5053437;28;19954;-77
2023/07/04 05:20:57;;;;;;;;;;;;;;;;;;5051934;28;19962;-78
2023/07/04 05:23:22;;;;;;;;;;;;;;;;;;5052129;28;19965;-77
2023/07/04 05:25:48;;;;;;;;;;;;;;;;;;5053803;28;20433;-76
2023/07/04 05:28:14;;;;;;;;;;;;;;;;;;5053568;28;19994;-78
2023/07/04 05:30:40;;;;;;;;;;;;;;;;;;5053310;28;19954;-76
2023/07/04 05:33:06;;;;;;;;;;;;;;;;;;5053568;28;19955;-78
2023/07/04 05:35:32;;;;;;;;;;;;;;;;;;5053195;28;20554;-78
2023/07/04 05:37:58;;;;;;;;;;;;;;;;;;5053423;28;19954;-77
2023/07/04 05:40:25;;;;;;;;;;;;;;;;;;5053186;28;20386;-76
2023/07/04 05:42:51;;;;;;;;;;;;;;;;;;5051792;28;20044;-78
2023/07/04 05:45:17;;;;;;;;;;;;;;;;;;5053377;28;20014;-77
2023/07/04 05:47:43;;;;;;;;;;;;;;;;;;5053155;28;20395;-78
2023/07/04 05:50:08;;;;;;;;;;;;;;;;;;5053949;28;20002;-78
2023/07/04 05:52:34;;;;;;;;;;;;;;;;;;5051789;28;20405;-78
2023/07/04 05:55:00;;;;;;;;;;;;;;;;;;5051808;28;19961;-77
2023/07/04 05:57:26;;;;;;;;;;;;;;;;;;5053078;28;20546;-78
2023/07/04 05:59:52;;;;;;;;;;;;;;;;;;5053013;28;20407;-78
2023/07/04 06:02:18;;;;;;;;;;;;;;;;;;5051557;28;20057;-77
2023/07/04 06:04:44;;;;;;;;;;;;;;;;;;5053154;28;19980;-77
2023/07/04 06:07:10;;;;;;;;;;;;;;;;;;5055523;28;20097;-78
2023/07/04 06:09:36;;;;;;;;;;;;;;;;;;5056600;28;19959;-78
2023/07/04 06:12:02;;;;;;;;;;;;;;;;;;5056779;28;19986;-78
2023/07/04 06:14:28;;;;;;;;;;;;;;;;;;5056479;28;20007;-77
2023/07/04 06:16:57;;;;;;;;;;;;;;;;;;5055184;28;20383;-78
2023/07/04 06:19:23;;;;;;;;;;;;;;;;;;5056956;28;19986;-78
2023/07/04 06:21:49;;;;;;;;;;;;;;;;;;5056392;28;19954;-77
2023/07/04 06:24:15;;;;;;;;;;;;;;;;;;5056223;28;19971;-77
2023/07/04 06:26:41;;;;;;;;;;;;;;;;;;5054953;28;19956;-78
2023/07/04 06:29:07;;;;;;;;;;;;;;;;;;5056740;28;20429;-78
2023/07/04 06:31:33;;;;;;;;;;;;;;;;;;5056192;28;19955;-78
2023/07/04 06:34:00;;;;;;;;;;;;;;;;;;5056210;28;20473;-78
2023/07/04 06:36:26;;;;;;;;;;;;;;;;;;5056377;28;19964;-76
2023/07/04 06:38:52;;;;;;;;;;;;;;;;;;5055997;28;19954;-77
2023/07/04 06:41:18;;;;;;;;;;;;;;;;;;5056554;28;19952;-77
2023/07/04 06:43:44;;;;;;;;;;;;;;;;;;5055631;28;19997;-77
2023/07/04 06:46:10;;;;;;;;;;;;;;;;;;5055944;28;19957;-77
2023/07/04 06:48:36;;;;;;;;;;;;;;;;;;5056668;28;19960;-76
2023/07/04 06:51:02;;;;;;;;;;;;;;;;;;5056634;28;19982;-77
2023/07/04 06:53:28;;;;;;;;;;;;;;;;;;5055778;28;19959;-77
2023/07/04 06:55:54;;;;;;;;;;;;;;;;;;5055659;28;19977;-77
2023/07/04 06:58:20;;;;;;;;;;;;;;;;;;5055939;28;19963;-77
2023/07/04 07:00:46;;;;;;;;;;;;;;;;;;5055668;28;20377;-77
2023/07/04 07:03:12;;;;;;;;;;;;;;;;;;5055870;28;19962;-76
2023/07/04 07:05:38;;;;;;;;;;;;;;;;;;5050934;28;20429;-70
2023/07/04 07:08:04;;;;;;;;;;;;;;;;;;5053790;28;19983;-70
2023/07/04 07:10:31;;;;;;;;;;;;;;;;;;5055359;28;20402;-74
2023/07/04 07:12:57;;;;;;;;;;;;;;;;;;5047594;28;19967;-70
2023/07/04 07:15:23;;;;;;;;;;;;;;;;;;5053856;28;20311;-68
2023/07/04 07:17:49;;;;;;;;;;;;;;;;;;5038321;28;19960;-70
2023/07/04 07:20:15;;;;;;;;;;;;;;;;;;5040710;28;19958;-70
2023/07/04 07:22:41;;;;;;;;;;;;;;;;;;5040185;28;19962;-68
2023/07/04 07:25:07;;;;;;;;;;;;;;;;;;5036297;28;20017;-68
2023/07/04 07:27:33;;;;;;;;;;;;;;;;;;5035645;28;19960;-70
2023/07/04 07:29:58;;;;;;;;;;;;;;;;;;5047714;28;19958;-69
2023/07/04 07:32:24;;;;;;;;;;;;;;;;;;5040374;28;20501;-69
2023/07/04 07:34:50;;;;;;;;;;;;;;;;;;5043133;28;19995;-71
2023/07/04 07:37:16;;;;;;;;;;;;;;;;;;5053151;28;19985;-71
2023/07/04 07:39:42;;;;;;;;;;;;;;;;;;5055315;28;20116;-70
2023/07/04 07:42:10;;;;;;;;;;;;;;;;;;5040637;28;19967;-71
2023/07/04 07:44:35;;;;;;;;;;;;;;;;;;5036404;28;19972;-70
2023/07/04 07:47:01;;;;;;;;;;;;;;;;;;5037660;28;19962;-70
2023/07/04 07:49:27;;;;;;;;;;;;;;;;;;5055745;28;20308;-71
2023/07/04 07:51:53;;;;;;;;;;;;;;;;;;5046190;28;20450;-70
2023/07/04 07:54:19;;;;;;;;;;;;;;;;;;5044654;28;20060;-72
2023/07/04 07:56:45;;;;;;;;;;;;;;;;;;5052216;28;19959;-71
2023/07/04 08:04:31;;;;;;;;;;;;;;;;;;3669305;28;19994;-72
2023/07/04 08:06:57;;;;;;;;;;;;;;;;;;5033410;28;19957;-70
2023/07/04 08:09:23;;;;;;;;;;;;;;;;;;5033623;28;20436;-72
2023/07/04 08:11:49;;;;;;;;;;;;;;;;;;5033262;28;19961;-70
2023/07/04 08:14:15;;;;;;;;;;;;;;;;;;5033390;28;20419;-74
2023/07/04 08:16:41;;;;;;;;;;;;;;;;;;5034428;28;19960;-74
2023/07/04 08:19:07;;;;;;;;;;;;;;;;;;5032988;28;20054;-70
2023/07/04 08:21:32;;;;;;;;;;;;;;;;;;5031715;28;20048;-70
2023/07/04 08:23:58;;;;;;;;;;;;;;;;;;5034863;28;20071;-70
2023/07/04 08:26:24;;;;;;;;;;;;;;;;;;5033724;28;19965;-69
2023/07/04 08:28:50;;;;;;;;;;;;;;;;;;5032207;28;19954;-69
2023/07/04 08:31:18;;;;;;;;;;;;;;;;;;5033582;28;20468;-70
2023/07/04 08:33:45;;;;;;;;;;;;;;;;;;5040892;28;19952;-69
2023/07/04 08:36:11;;;;;;;;;;;;;;;;;;5054243;28;20399;-69
2023/07/04 08:38:36;;;;;;;;;;;;;;;;;;5052532;28;19954;-69
2023/07/04 08:41:02;;;;;;;;;;;;;;;;;;5033421;28;19962;-70
2023/07/04 08:43:28;;;;;;;;;;;;;;;;;;5032662;28;20046;-69
2023/07/04 08:45:54;;;;;;;;;;;;;;;;;;5032839;28;19981;-72
2023/07/04 08:48:20;;;;;;;;;;;;;;;;;;5033981;28;19959;-71
2023/07/04 08:50:46;;;;;;;;;;;;;;;;;;5033467;28;19967;-70
2023/07/04 08:53:12;;;;;;;;;;;;;;;;;;5033083;28;20040;-71
2023/07/04 08:55:38;;;;;;;;;;;;;;;;;;5033528;28;19960;-71
2023/07/04 08:58:03;;;;;;;;;;;;;;;;;;5033197;28;19960;-71
2023/07/04 09:00:29;;;;;;;;;;;;;;;;;;5033665;28;19954;-71
2023/07/04 09:02:55;;;;;;;;;;;;;;;;;;5033671;28;20024;-71
2023/07/04 09:05:21;;;;;;;;;;;;;;;;;;5033888;28;19988;-71
2023/07/04 09:07:47;;;;;;;;;;;;;;;;;;5033202;28;19969;-71
2023/07/04 09:10:13;;;;;;;;;;;;;;;;;;5033541;28;20401;-71
2023/07/04 09:12:39;;;;;;;;;;;;;;;;;;5033830;28;19950;-71
2023/07/04 09:15:05;;;;;;;;;;;;;;;;;;5032087;28;20043;-70
2023/07/04 09:17:31;;;;;;;;;;;;;;;;;;5032720;28;19959;-70
2023/07/04 09:19:56;;;;;;;;;;;;;;;;;;5033015;28;20008;-72
2023/07/04 09:22:22;;;;;;;;;;;;;;;;;;5032009;28;19964;-67
2023/07/04 09:24:48;;;;;;;;;;;;;;;;;;5032975;28;20074;-68
2023/07/04 09:27:14;;;;;;;;;;;;;;;;;;5032756;28;19957;-68
2023/07/04 09:29:40;;;;;;;;;;;;;;;;;;5032737;28;20331;-69
2023/07/04 09:32:06;;;;;;;;;;;;;;;;;;5033539;28;19968;-70
2023/07/04 09:34:32;;;;;;;;;;;;;;;;;;5031147;28;20026;-70
2023/07/04 09:36:58;;;;;;;;;;;;;;;;;;5032835;28;20434;-68
2023/07/04 09:39:24;;;;;;;;;;;;;;;;;;5034046;28;19955;-68
2023/07/04 09:41:50;;;;;;;;;;;;;;;;;;5036753;28;19962;-70
2023/07/04 09:44:16;;;;;;;;;;;;;;;;;;5037018;28;20031;-70
2023/07/04 09:46:41;;;;;;;;;;;;;;;;;;5037611;28;19952;-72
2023/07/04 09:49:07;;;;;;;;;;;;;;;;;;5036371;28;19962;-69
2023/07/04 09:51:33;;;;;;;;;;;;;;;;;;5036519;28;19960;-69
2023/07/04 09:53:59;;;;;;;;;;;;;;;;;;5036159;28;20079;-70
2023/07/04 09:56:25;;;;;;;;;;;;;;;;;;5036508;28;20013;-69
2023/07/04 09:58:51;;;;;;;;;;;;;;;;;;5036666;28;19958;-68
2023/07/04 10:01:17;;;;;;;;;;;;;;;;;;5036643;28;20440;-70
2023/07/04 10:03:45;;;;;;;;;;;;;;;;;;5037083;28;20344;-69
2023/07/04 10:06:10;;;;;;;;;;;;;;;;;;5036757;28;19994;-69
2023/07/04 10:08:36;;;;;;;;;;;;;;;;;;5036758;28;19954;-69
2023/07/04 10:11:03;;;;;;;;;;;;;;;;;;5036671;28;19949;-68
2023/07/04 10:13:29;;;;;;;;;;;;;;;;;;5035780;28;20419;-69
2023/07/04 10:15:56;;;;;;;;;;;;;;;;;;5035619;28;20051;-70
2023/07/04 10:18:22;;;;;;;;;;;;;;;;;;5035770;28;20418;-69
2023/07/04 10:20:48;;;;;;;;;;;;;;;;;;5036261;28;19956;-69
2023/07/04 10:23:14;;;;;;;;;;;;;;;;;;5035877;28;19963;-68
2023/07/04 10:25:40;;;;;;;;;;;;;;;;;;5035833;28;19974;-69
2023/07/04 10:28:06;;;;;;;;;;;;;;;;;;5034526;28;19959;-70
2023/07/04 10:30:32;;;;;;;;;;;;;;;;;;5036108;28;19959;-74
2023/07/04 10:32:58;;;;;;;;;;;;;;;;;;5035472;28;20340;-73
2023/07/04 10:35:24;;;;;;;;;;;;;;;;;;5035048;28;19969;-74
2023/07/04 10:37:49;;;;;;;;;;;;;;;;;;5035035;28;20440;-71
2023/07/04 10:40:15;;;;;;;;;;;;;;;;;;5036369;28;19975;-71
2023/07/04 10:42:41;;;;;;;;;;;;;;;;;;5036338;28;20322;-71
2023/07/04 10:45:08;;;;;;;;;;;;;;;;;;5035928;28;20351;-72
2023/07/04 10:47:34;;;;;;;;;;;;;;;;;;5035949;28;19954;-72
2023/07/04 10:50:00;;;;;;;;;;;;;;;;;;5036250;28;19960;-72
2023/07/04 10:52:26;;;;;;;;;;;;;;;;;;5035098;28;19956;-72
2023/07/04 10:54:52;;;;;;;;;;;;;;;;;;5036403;28;19954;-71
2023/07/04 10:57:18;;;;;;;;;;;;;;;;;;5036079;28;19951;-70
2023/07/04 10:59:44;;;;;;;;;;;;;;;;;;5051098;28;20359;-71
2023/07/04 11:02:10;;;;;;;;;;;;;;;;;;5035620;28;20052;-71
2023/07/04 11:04:37;;;;;;;;;;;;;;;;;;5035781;28;20423;-70
2023/07/04 11:07:03;;;;;;;;;;;;;;;;;;5036427;28;20311;-71
2023/07/04 11:09:29;;;;;;;;;;;;;;;;;;5035613;28;20045;-71
2023/07/04 11:11:55;;;;;;;;;;;;;;;;;;5036051;28;20361;-71
2023/07/04 11:14:21;;;;;;;;;;;;;;;;;;5035475;28;20048;-71
2023/07/04 11:16:47;;;;;;;;;;;;;;;;;;5035360;28;19998;-71
2023/07/04 11:19:13;;;;;;;;;;;;;;;;;;5035904;28;20450;-71
2023/07/04 11:21:38;;;;;;;;;;;;;;;;;;5035525;28;19962;-71
2023/07/04 11:24:04;;;;;;;;;;;;;;;;;;5035180;28;20441;-71
2023/07/04 11:26:32;;;;;;;;;;;;;;;;;;5035213;28;20013;-72
2023/07/04 11:28:59;;;;;;;;;;;;;;;;;;5035647;28;19953;-70
2023/07/04 11:31:25;;;;;;;;;;;;;;;;;;5035318;28;19960;-71
2023/07/04 11:33:51;;;;;;;;;;;;;;;;;;5034759;28;19961;-71
2023/07/04 11:36:17;;;;;;;;;;;;;;;;;;5034927;28;19956;-71
2023/07/04 11:38:44;;;;;;;;;;;;;;;;;;5034976;28;20041;-71
2023/07/04 11:41:10;;;;;;;;;;;;;;;;;;5035552;28;19998;-71
2023/07/04 11:43:35;;;;;;;;;;;;;;;;;;5034911;28;20372;-71
2023/07/04 11:46:01;;;;;;;;;;;;;;;;;;5035086;28;19997;-71
2023/07/04 11:48:27;;;;;;;;;;;;;;;;;;5034850;28;20401;-71
2023/07/04 11:50:54;;;;;;;;;;;;;;;;;;5035064;28;20065;-71
2023/07/04 11:53:20;;;;;;;;;;;;;;;;;;5034732;28;19953;-71
2023/07/04 11:55:46;;;;;;;;;;;;;;;;;;5035242;28;19965;-71
2023/07/04 11:58:12;;;;;;;;;;;;;;;;;;5034685;28;19953;-72
2023/07/04 12:00:38;;;;;;;;;;;;;;;;;;5034861;28;20089;-72
2023/07/04 12:03:04;;;;;;;;;;;;;;;;;;5034443;28;19969;-71
2023/07/04 12:05:30;;;;;;;;;;;;;;;;;;5034392;28;19998;-71
2023/07/04 12:07:59;;;;;;;;;;;;;;;;;;5034504;28;19957;-72
2023/07/04 12:10:25;;;;;;;;;;;;;;;;;;5034459;28;20054;-72
2023/07/04 12:12:51;;;;;;;;;;;;;;;;;;5034711;28;19988;-72
2023/07/04 12:15:17;;;;;;;;;;;;;;;;;;5034349;28;20420;-72
2023/07/04 12:17:43;;;;;;;;;;;;;;;;;;5034330;28;19954;-71
2023/07/04 12:20:09;;;;;;;;;;;;;;;;;;5034264;28;19993;-71
2023/07/04 12:22:35;;;;;;;;;;;;;;;;;;5034531;28;20429;-72
2023/07/04 12:25:01;;;;;;;;;;;;;;;;;;5034081;28;19976;-71
2023/07/04 12:27:28;;;;;;;;;;;;;;;;;;5034149;28;20069;-72
2023/07/04 12:29:53;;;;;;;;;;;;;;;;;;5034121;28;19991;-72
2023/07/04 12:32:21;;;;;;;;;;;;;;;;;;5049462;28;19964;-72
2023/07/04 12:34:47;;;;;;;;;;;;;;;;;;5034005;28;19954;-71
2023/07/04 12:37:16;;;;;;;;;;;;;;;;;;5034298;28;19961;-72
2023/07/04 12:39:42;;;;;;;;;;;;;;;;;;5033938;28;19960;-71
2023/07/04 12:42:08;;;;;;;;;;;;;;;;;;5034197;28;20310;-72
2023/07/04 12:44:35;;;;;;;;;;;;;;;;;;5033790;28;19975;-72
2023/07/04 12:47:01;;;;;;;;;;;;;;;;;;5034094;28;20011;-71
2023/07/04 12:49:27;;;;;;;;;;;;;;;;;;5034108;28;20349;-72
2023/07/04 12:51:53;;;;;;;;;;;;;;;;;;5034121;28;19963;-71
2023/07/04 12:54:19;;;;;;;;;;;;;;;;;;5033806;28;20003;-71
2023/07/04 12:56:46;;;;;;;;;;;;;;;;;;5034336;28;20413;-72
2023/07/04 12:59:12;;;;;;;;;;;;;;;;;;5034023;28;19976;-72
2023/07/04 13:01:38;;;;;;;;;;;;;;;;;;5033900;28;20440;-71
2023/07/04 13:04:04;;;;;;;;;;;;;;;;;;5033360;28;19953;-71
2023/07/04 13:06:30;;;;;;;;;;;;;;;;;;5034749;28;20399;-71
2023/07/04 13:08:56;;;;;;;;;;;;;;;;;;5033646;28;19959;-71
2023/07/04 13:11:22;;;;;;;;;;;;;;;;;;5033922;28;20405;-71
2023/07/04 13:13:48;;;;;;;;;;;;;;;;;;5033546;28;19961;-71
2023/07/04 13:16:14;;;;;;;;;;;;;;;;;;5036765;28;19962;-72
2023/07/04 13:18:41;;;;;;;;;;;;;;;;;;5037647;28;19962;-72
2023/07/04 13:21:07;;;;;;;;;;;;;;;;;;5037613;28;20002;-72
2023/07/04 13:23:33;;;;;;;;;;;;;;;;;;5037552;28;19955;-71
2023/07/04 13:25:59;;;;;;;;;;;;;;;;;;5037440;28;19982;-71
2023/07/04 13:28:27;;;;;;;;;;;;;;;;;;5037730;28;19954;-71
2023/07/04 13:30:53;;;;;;;;;;;;;;;;;;5037432;28;20404;-71
2023/07/04 13:33:18;;;;;;;;;;;;;;;;;;5037953;28;19996;-71
2023/07/04 13:35:44;;;;;;;;;;;;;;;;;;5037331;28;19962;-71
2023/07/04 13:38:10;;;;;;;;;;;;;;;;;;5037304;28;20570;-71
2023/07/04 13:40:36;;;;;;;;;;;;;;;;;;5037259;28;19964;-71
2023/07/04 13:43:02;;;;;;;;;;;;;;;;;;5037774;28;20400;-71
2023/07/04 13:45:28;;;;;;;;;;;;;;;;;;5037294;28;19975;-71
2023/07/04 13:47:54;;;;;;;;;;;;;;;;;;5037124;28;20429;-71
2023/07/04 13:50:20;;;;;;;;;;;;;;;;;;5037053;28;19961;-71
2023/07/04 13:52:45;;;;;;;;;;;;;;;;;;5037039;28;19963;-71
2023/07/04 13:55:11;;;;;;;;;;;;;;;;;;5037010;28;19955;-71
2023/07/04 13:57:37;;;;;;;;;;;;;;;;;;5036775;28;20395;-71
2023/07/04 14:00:05;;;;;;;;;;;;;;;;;;5036824;28;19954;-71
2023/07/04 14:02:30;;;;;;;;;;;;;;;;;;5037344;28;20378;-71
2023/07/04 14:04:56;;;;;;;;;;;;;;;;;;5036569;28;20089;-71
2023/07/04 14:07:22;;;;;;;;;;;;;;;;;;5037849;28;19962;-71
2023/07/04 14:09:48;;;;;;;;;;;;;;;;;;5037019;28;19955;-71
2023/07/04 14:12:14;;;;;;;;;;;;;;;;;;5036703;28;20397;-71
2023/07/04 14:14:40;;;;;;;;;;;;;;;;;;5036642;28;20008;-71
2023/07/04 14:17:06;;;;;;;;;;;;;;;;;;5036825;28;20329;-71
2023/07/04 14:19:32;;;;;;;;;;;;;;;;;;5036518;28;19954;-71
2023/07/04 14:21:57;;;;;;;;;;;;;;;;;;5036782;28;20428;-71
2023/07/04 14:24:23;;;;;;;;;;;;;;;;;;5036374;28;20020;-71
2023/07/04 14:26:49;;;;;;;;;;;;;;;;;;5035215;28;19976;-71
2023/07/04 14:29:15;;;;;;;;;;;;;;;;;;5036624;28;19994;-71
2023/07/04 14:31:41;;;;;;;;;;;;;;;;;;5036574;28;19961;-71
2023/07/04 14:34:07;;;;;;;;;;;;;;;;;;5036802;28;19963;-71
2023/07/04 14:36:33;;;;;;;;;;;;;;;;;;5036223;28;20017;-71
2023/07/04 14:38:59;;;;;;;;;;;;;;;;;;5036181;28;19998;-71
2023/07/04 14:41:24;;;;;;;;;;;;;;;;;;5036137;28;19955;-71
2023/07/04 14:43:50;;;;;;;;;;;;;;;;;;5036387;28;20005;-71
2023/07/04 14:46:17;;;;;;;;;;;;;;;;;;5036277;28;19978;-71
2023/07/04 14:48:43;;;;;;;;;;;;;;;;;;5036538;28;19955;-71
2023/07/04 14:51:09;;;;;;;;;;;;;;;;;;5035981;28;20005;-71
2023/07/04 14:53:35;;;;;;;;;;;;;;;;;;5035922;28;20041;-71
2023/07/04 14:56:01;;;;;;;;;;;;;;;;;;5036167;28;20435;-71
2023/07/04 14:58:27;;;;;;;;;;;;;;;;;;5036080;28;20496;-71
2023/07/04 15:00:52;;;;;;;;;;;;;;;;;;5035809;28;19962;-71
2023/07/04 15:03:18;;;;;;;;;;;;;;;;;;5035656;28;20104;-71
2023/07/04 15:05:44;;;;;;;;;;;;;;;;;;5035264;28;20373;-71
2023/07/04 15:08:10;;;;;;;;;;;;;;;;;;5036226;28;19952;-71
2023/07/04 15:10:36;;;;;;;;;;;;;;;;;;5035574;28;20377;-71
2023/07/04 15:13:02;;;;;;;;;;;;;;;;;;5035819;28;19955;-71
2023/07/04 15:15:28;;;;;;;;;;;;;;;;;;5035486;28;20369;-71
2023/07/04 15:17:54;;;;;;;;;;;;;;;;;;5035468;28;19962;-71
2023/07/04 15:20:20;;;;;;;;;;;;;;;;;;5035674;28;19957;-71
2023/07/04 15:22:46;;;;;;;;;;;;;;;;;;5035337;28;20367;-71
2023/07/04 15:25:12;;;;;;;;;;;;;;;;;;5035566;28;20469;-71
2023/07/04 15:27:38;;;;;;;;;;;;;;;;;;5035555;28;20041;-71
2023/07/04 15:30:04;;;;;;;;;;;;;;;;;;5035240;28;19955;-71
2023/07/04 15:32:30;;;;;;;;;;;;;;;;;;5035383;28;20004;-71
2023/07/04 15:34:56;;;;;;;;;;;;;;;;;;5035202;28;19953;-71
2023/07/04 15:37:24;;;;;;;;;;;;;;;;;;5035651;28;20398;-71
2023/07/04 15:39:50;;;;;;;;;;;;;;;;;;5035099;28;19961;-71
2023/07/04 15:42:16;;;;;;;;;;;;;;;;;;5034824;28;19959;-71
2023/07/04 15:44:42;;;;;;;;;;;;;;;;;;5035399;28;20453;-71
2023/07/04 15:47:09;;;;;;;;;;;;;;;;;;5035179;28;19960;-71
2023/07/04 15:49:34;;;;;;;;;;;;;;;;;;5035505;28;20017;-71
2023/07/04 15:52:00;;;;;;;;;;;;;;;;;;5034808;28;19959;-71
2023/07/04 15:54:26;;;;;;;;;;;;;;;;;;5035312;28;20419;-71
2023/07/04 15:56:52;;;;;;;;;;;;;;;;;;5035015;28;19953;-71
2023/07/04 15:59:18;;;;;;;;;;;;;;;;;;5034658;28;20373;-71
2023/07/04 16:01:44;;;;;;;;;;;;;;;;;;5034537;28;19972;-71
2023/07/04 16:04:10;;;;;;;;;;;;;;;;;;5034540;28;19955;-71
2023/07/04 16:06:36;;;;;;;;;;;;;;;;;;5035358;28;20013;-71
2023/07/04 16:09:02;;;;;;;;;;;;;;;;;;5034751;28;20369;-71
2023/07/04 16:11:28;;;;;;;;;;;;;;;;;;5034743;28;20046;-71
2023/07/04 16:13:54;;;;;;;;;;;;;;;;;;5034384;28;20071;-71
2023/07/04 16:16:20;;;;;;;;;;;;;;;;;;5034639;28;20049;-71
2023/07/04 16:18:46;;;;;;;;;;;;;;;;;;5034234;28;20002;-71
2023/07/04 16:21:12;;;;;;;;;;;;;;;;;;5034492;28;19954;-72
2023/07/04 16:23:37;;;;;;;;;;;;;;;;;;5034174;28;19953;-72
2023/07/04 16:26:03;;;;;;;;;;;;;;;;;;5034269;28;19996;-71
2023/07/04 16:28:29;;;;;;;;;;;;;;;;;;5034076;28;20001;-71
2023/07/04 16:30:55;;;;;;;;;;;;;;;;;;5034384;28;19978;-71
2023/07/04 16:33:21;;;;;;;;;;;;;;;;;;5034101;28;19955;-71
2023/07/04 16:35:47;;;;;;;;;;;;;;;;;;5034040;28;20038;-71
2023/07/04 16:38:13;;;;;;;;;;;;;;;;;;5034020;28;19952;-71
2023/07/04 16:40:39;;;;;;;;;;;;;;;;;;5033985;28;19954;-71
2023/07/04 16:43:04;;;;;;;;;;;;;;;;;;5033965;28;19959;-71